• Join FlightAware (Why Join?)
  • Login
  • US Flag 
11:07PM EDT


 

Airport Tracker/Info


-or-


 

Live Flight TrackerFlight Track Log ✈ N629SA ✈ 29-Oct-2013 ✈ KAPF - KDAB

Flight Track Log - Related Links

Times and Time Zones

All times are in EDT time to prevent confusion due to time zone crossing. See the N629SA flight status page for this flight to view local times or setup timezone preferences in your user account.

Time Position Orientation Groundspeed Altitude Reporting Facility
EDT Latitude Longitude Course Direction KTS MPH feet Rate Location/Type
10:40AM 26.7514 -81.8392 12° North 138 159 5,500  Level Miami Center
10:41AM 26.7908 -81.8456 352° North 138 159 5,500  Level Miami Center
10:42AM 26.9285 -81.5955 12° North  Level Estimated
10:42AM 26.8283 -81.8494 355° North 138 159 5,500  Level Miami Center
10:43AM 26.9702 -81.5858 12° North  Level Estimated
10:43AM 26.8636 -81.8556 351° North 138 159 5,500  Level Miami Center
10:44AM 27.0119 -81.5760 12° North  Level Estimated
10:44AM 26.9008 -81.8594 355° North 138 159 5,500  Level Miami Center
10:45AM 26.9383 -81.8658 351° North 143 165 5,400 -60 Descending Miami Center
10:46AM 26.9778 -81.8722 352° North 143 165 5,400  Level Miami Center
10:47AM 27.0150 -81.8783 352° North 143 165 5,400  Level Miami Center
10:48AM 27.0544 -81.8847 352° North 143 165 5,400  Level Miami Center
10:49AM 27.0942 -81.8889 355° North 143 165 5,400  Level Miami Center
10:50AM 27.1314 -81.8928 355° North 143 165 5,400  Level Miami Center
10:51AM 27.1708 -81.8992 352° North 143 165 5,400  Level Miami Center
10:52AM 27.2083 -81.9056 351° North 143 165 5,400  Level Miami Center
10:53AM 27.2478 -81.9094 355° North 143 165 5,400  Level Miami Center
10:54AM 27.2850 -81.9158 351° North 143 165 5,500  Climbing Miami Center
10:55AM 27.3244 -81.9222 352° North 143 165 5,500  Level Miami Center
10:56AM 27.3619 -81.9261 355° North 143 165 5,500  Level Miami Center
10:57AM 27.3994 -81.9325 351° North 143 165 5,500  Level Miami Center
10:58AM 27.4389 -81.9367 355° North 143 165 5,500  Level Miami Center
10:59AM 27.4761 -81.9431 351° North 143 165 5,500  Level Miami Center
11:00AM 27.5136 -81.9469 355° North 143 165 5,500  Level Miami Center
11:01AM 27.5511 -81.9508 355° North 138 159 5,500  Level Miami Center
11:02AM 27.5947 -81.9553 355° North 138 159 5,500  Level Miami Center
11:03AM 27.6319 -81.9639 348° North 138 159 5,500  Level Miami Center
11:04AM 27.6736 -81.9681 355° North 145 167 5,500  Level Miami Center
11:05AM 27.7089 -81.9719 354° North 140 161 5,500  Level Miami Center
11:06AM 27.7461 -81.9783 351° North 140 161 5,500  Level Miami Center
11:07AM 27.7878 -81.9825 355° North 140 161 5,500  Level Miami Center
11:08AM 27.8292 -81.9914 349° North 139 160 5,500  Level Miami Center
11:09AM 27.8686 -81.9981 352° North 139 160 5,500  Level Miami Center
11:10AM 27.9081 -82.0044 352° North 139 160 5,500  Level Miami Center
11:11AM 27.9475 -82.0086 355° North 139 160 5,500  Level Miami Center
11:13AM 28.0108 -81.9794 33° Northeast  Level FlightAware Approximate
11:14AM 28.0500 -81.9667 33° Northeast 139 160 5,500  Level Orlando TRACON
11:15AM 28.0833 -81.9333 41° Northeast 140 161 5,500  Level Orlando TRACON
11:16AM 28.1167 -81.9167 24° Northeast 140 161 5,500  Level Orlando TRACON
11:17AM 28.1500 -81.8833 41° Northeast 141 162 5,500  Level Orlando TRACON
11:18AM 28.1833 -81.8667 24° Northeast 140 161 5,500  Level Orlando TRACON
11:19AM 28.2167 -81.8500 24° Northeast 141 162 5,500  Level Orlando TRACON
11:20AM 28.2500 -81.8333 24° Northeast 141 162 5,500  Level Orlando TRACON
11:21AM 28.2833 -81.8167 24° Northeast 147 169 5,500  Level Orlando TRACON
11:22AM 28.3333 -81.8167 360° North 147 169 5,500  Level Orlando TRACON
11:23AM 28.3667 -81.8167 360° North 141 162 5,500  Level Orlando TRACON
11:24AM 28.4000 -81.8000 24° Northeast 143 165 5,500  Level Orlando TRACON
11:25AM 28.4500 -81.8000 360° North 144 166 5,500  Level Orlando TRACON
11:26AM 28.4833 -81.8000 360° North 145 167 5,500  Level Orlando TRACON
11:27AM 28.5167 -81.8000 360° North 143 165 5,500  Level Orlando TRACON
11:28AM 28.5500 -81.7667 41° Northeast 138 159 5,500  Level Orlando TRACON
11:29AM 28.5833 -81.7333 41° Northeast 139 160 5,500  Level Orlando TRACON
11:30AM 28.6000 -81.7000 60° Northeast 138 159 5,500  Level Orlando TRACON
11:31AM 28.6333 -81.6667 41° Northeast 139 160 5,500  Level Orlando TRACON
11:32AM 28.6667 -81.6500 24° Northeast 139 160 5,500  Level Orlando TRACON
11:33AM 28.6833 -81.6167 60° Northeast 139 160 5,500  Level Orlando TRACON
11:34AM 28.7167 -81.5833 41° Northeast 138 159 5,500  Level Orlando TRACON
11:35AM 28.7500 -81.5500 41° Northeast 138 159 5,500  Level Orlando TRACON
11:36AM 28.7667 -81.5167 60° Northeast 138 159 5,500  Level Orlando TRACON
11:37AM 28.8000 -81.4833 41° Northeast 138 159 5,500  Level Orlando TRACON
11:38AM 28.8333 -81.4500 41° Northeast 140 161 5,500  Level Orlando TRACON
11:39AM 28.8500 -81.4167 60° Northeast 141 162 5,500  Level Orlando TRACON
11:40AM 28.8800 -81.3964 31° Northeast 140 161 5,500  Level Jacksonville Center
11:41AM 28.9131 -81.3603 44° Northeast 141 162 5,500  Level Jacksonville Center
11:42AM 28.9417 -81.3292 44° Northeast 143 165 5,500 -180 Level Jacksonville Center
11:43AM 28.9706 -81.2953 46° Northeast 143 165 5,200 -540 Descending Jacksonville Center
11:44AM 28.9972 -81.2642 46° Northeast 150 173 4,500 -840 Descending Jacksonville Center
11:45AM 29.0242 -81.2350 43° Northeast 142 163 3,700 -900 Descending Jacksonville Center
11:46AM 29.0508 -81.2039 46° Northeast 137 158 2,700 -840 Descending Jacksonville Center
11:47AM 29.0903 -81.1864 21° North 134 154 2,000 -420 Descending Jacksonville Center
11:48AM 29.1236 -81.1836 North 119 137 1,900 -240 Descending Jacksonville Center
11:49AM 29.1400 -81.1569 55° Northeast 102 117 1,600 -480 Descending Jacksonville Center
11:50AM 29.1519 -81.1261 66° East 104 120 1,000 -600 Descending Jacksonville Center
11:51AM 29.1622 -81.0972 68° East 100 115 400 -600 Descending Jacksonville Center
11:53AM 29.1667 -81.0500 44° Northeast  Level FlightAware Approximate
12:00PM 29.1799 -81.0581 44° Northeast  Level Estimated
12:01PM 29.1799 -81.0581 44° Northeast  Level Estimated
12:02PM 29.1799 -81.0581 44° Northeast  Level Estimated